createdAt,value
2018-09-20T00:00:07.175Z,3.45
2018-09-20T00:02:42.023Z,3.22
2018-09-20T00:05:13.553Z,3.58
2018-09-20T00:07:42.557Z,3.40
2018-09-20T00:10:15.506Z,3.30
2018-09-20T00:12:45.426Z,2.95
2018-09-20T00:15:22.332Z,3.22
2018-09-20T00:17:56.080Z,3.55
2018-09-20T00:20:30.726Z,3.42
2018-09-20T00:23:00.780Z,3.37
2018-09-20T00:25:32.510Z,3.67
2018-09-20T00:30:40.298Z,3.00
2018-09-20T00:33:09.313Z,3.47
2018-09-20T00:40:58.029Z,3.10
2018-09-20T00:43:26.946Z,3.58
2018-09-20T00:45:57.942Z,3.40
2018-09-20T00:48:33.272Z,3.08
2018-09-20T00:51:06.149Z,3.37
2018-09-20T00:53:39.817Z,3.20
2018-09-20T00:59:18.265Z,3.10
2018-09-20T01:01:52.317Z,3.45
2018-09-20T01:04:28.260Z,3.90
2018-09-20T01:07:00.337Z,2.90
2018-09-20T01:09:29.621Z,2.83
2018-09-20T01:12:15.537Z,3.35
2018-09-20T01:17:50.309Z,2.87
2018-09-20T01:20:22.685Z,2.58
2018-09-20T01:22:51.259Z,3.55
2018-09-20T01:25:25.862Z,3.22
2018-09-20T01:27:57.370Z,2.75
2018-09-20T01:33:10.381Z,3.23
2018-09-20T01:35:55.418Z,3.00
2018-09-20T01:38:26.685Z,3.15
2018-09-20T01:40:57.412Z,3.08
2018-09-20T01:43:26.355Z,2.98
2018-09-20T01:45:55.501Z,2.95
2018-09-20T01:48:27.638Z,2.85
2018-09-20T01:50:57.899Z,3.25
2018-09-20T01:53:30.470Z,3.60
2018-09-20T01:55:59.193Z,2.67
2018-09-20T01:58:36.059Z,2.75
2018-09-20T02:01:08.067Z,3.05
2018-09-20T02:03:41.247Z,2.67
2018-09-20T02:06:11.609Z,2.92
2018-09-20T02:08:40.604Z,2.80
2018-09-20T02:11:12.057Z,3.35
2018-09-20T02:13:51.416Z,3.33
2018-09-20T02:16:26.458Z,2.75
2018-09-20T02:19:00.913Z,2.95
2018-09-20T02:21:31.374Z,3.08
2018-09-20T02:24:21.340Z,3.02
2018-09-20T02:26:58.545Z,2.85
2018-09-20T02:29:47.812Z,2.83
2018-09-20T02:32:20.742Z,2.72
2018-09-20T02:34:50.431Z,2.98
2018-09-20T02:37:21.764Z,3.12
2018-09-20T02:39:56.401Z,3.37
2018-09-20T02:42:29.523Z,2.98
2018-09-20T02:44:59.041Z,2.95
2018-09-20T02:47:32.598Z,3.17
2018-09-20T02:50:01.838Z,3.60
2018-09-20T02:52:31.363Z,3.10
2018-09-20T02:55:01.563Z,2.98
2018-09-20T02:57:33.164Z,3.12
2018-09-20T03:00:02.730Z,3.00
2018-09-20T03:02:31.469Z,3.80
2018-09-20T03:05:01.481Z,2.80
2018-09-20T03:07:31.727Z,3.00
2018-09-20T03:10:04.531Z,2.65
2018-09-20T03:12:35.141Z,3.40
2018-09-20T03:17:59.297Z,3.67
2018-09-20T03:20:28.047Z,2.87
2018-09-20T03:22:56.642Z,2.95
2018-09-20T03:25:27.442Z,3.72
2018-09-20T03:28:03.224Z,3.33
2018-09-20T03:30:34.276Z,3.30
2018-09-20T03:33:12.047Z,2.85
2018-09-20T03:35:41.615Z,3.00
2018-09-20T03:38:11.690Z,2.92
2018-09-20T03:43:17.243Z,3.27
2018-09-20T03:48:23.718Z,3.00
2018-09-20T03:53:35.583Z,2.70
2018-09-20T03:56:25.942Z,3.27
2018-09-20T03:58:55.729Z,3.10
2018-09-20T04:01:34.477Z,2.87
2018-09-20T04:06:41.786Z,3.10
2018-09-20T04:09:13.837Z,3.50
2018-09-20T04:11:50.703Z,2.70
2018-09-20T04:20:05.625Z,2.60
2018-09-20T04:22:38.477Z,3.12
2018-09-20T04:25:08.206Z,2.50
2018-09-20T04:27:36.697Z,2.92
2018-09-20T04:30:16.291Z,2.72
2018-09-20T04:32:51.704Z,2.70
2018-09-20T04:35:20.526Z,2.98
2018-09-20T04:40:42.595Z,2.87
2018-09-20T04:43:15.819Z,3.33
2018-09-20T04:45:46.301Z,3.10
2018-09-20T04:48:17.707Z,2.87
2018-09-20T04:50:51.331Z,3.10
2018-09-20T04:53:22.459Z,3.10
2018-09-20T04:55:51.541Z,3.50
2018-09-20T04:58:30.356Z,2.87
2018-09-20T05:01:02.029Z,3.27
2018-09-20T05:03:36.447Z,2.92
2018-09-20T05:06:08.000Z,2.75
2018-09-20T05:08:44.191Z,3.00
2018-09-20T05:11:45.476Z,3.00
2018-09-20T05:14:25.149Z,3.50
2018-09-20T05:16:58.371Z,3.87
2018-09-20T05:19:29.785Z,2.98
2018-09-20T05:23:11.939Z,2.90
2018-09-20T05:25:43.388Z,3.83
2018-09-20T05:28:12.968Z,3.05
2018-09-20T05:30:50.202Z,3.87
2018-09-20T05:33:20.623Z,4.03
2018-09-20T05:35:54.908Z,3.33
2018-09-20T05:38:26.949Z,4.65
2018-09-20T05:40:57.032Z,3.22
2018-09-20T05:43:32.558Z,3.42
2018-09-20T05:46:04.923Z,3.60
2018-09-20T05:48:33.697Z,3.15
2018-09-20T05:53:57.747Z,3.83
2018-09-20T05:56:28.855Z,3.45
2018-09-20T05:59:00.582Z,3.90
2018-09-20T06:04:05.822Z,3.70
2018-09-20T06:06:37.916Z,3.42
2018-09-20T06:11:59.446Z,3.80
2018-09-20T06:14:29.007Z,3.72
2018-09-20T06:16:58.895Z,3.83
2018-09-20T06:19:36.743Z,3.60
2018-09-20T06:24:58.699Z,3.02
2018-09-20T06:27:34.077Z,3.00
2018-09-20T06:36:34.254Z,3.83
2018-09-20T06:41:49.558Z,3.60
2018-09-20T06:44:20.330Z,3.00
2018-09-20T06:46:59.647Z,3.08
2018-09-20T06:49:35.317Z,3.12
2018-09-20T06:52:08.388Z,3.12
2018-09-20T06:54:39.283Z,3.20
2018-09-20T06:57:10.187Z,2.83
2018-09-20T06:59:43.050Z,2.83
2018-09-20T07:02:13.006Z,3.60
2018-09-20T07:04:43.752Z,3.30
2018-09-20T07:12:52.065Z,3.22
2018-09-20T07:15:20.619Z,3.42
2018-09-20T07:17:49.956Z,3.80
2018-09-20T07:24:06.563Z,3.70
2018-09-20T07:26:35.344Z,3.45
2018-09-20T07:29:05.208Z,3.70
2018-09-20T07:31:36.872Z,4.30
2018-09-20T07:34:10.985Z,4.58
2018-09-20T07:36:58.049Z,4.00
2018-09-20T07:39:28.148Z,4.10
2018-09-20T07:42:02.288Z,3.90
2018-09-20T07:44:35.635Z,3.70
2018-09-20T07:47:14.871Z,3.55
2018-09-20T07:49:44.917Z,4.17
2018-09-20T07:52:14.823Z,4.47
2018-09-20T07:54:52.934Z,3.65
2018-09-20T07:57:21.473Z,3.83
2018-09-20T07:59:55.336Z,3.83
2018-09-20T08:02:25.976Z,3.85
2018-09-20T08:05:00.219Z,4.30
2018-09-20T08:07:32.765Z,4.35
2018-09-20T08:13:11.393Z,3.57
2018-09-20T08:15:40.614Z,3.85
2018-09-20T08:18:26.273Z,3.67
2018-09-20T08:20:59.025Z,4.20
2018-09-20T08:23:34.404Z,4.40
2018-09-20T08:26:25.050Z,3.85
2018-09-20T08:28:56.918Z,4.20
2018-09-20T08:34:16.354Z,3.77
2018-09-20T08:36:52.452Z,4.22
2018-09-20T08:39:24.438Z,3.95
2018-09-20T08:41:56.432Z,3.75
2018-09-20T08:44:27.710Z,3.87
2018-09-20T08:46:57.965Z,4.83
2018-09-20T08:52:17.959Z,3.70
2018-09-20T08:55:06.779Z,3.58
2018-09-20T08:57:48.524Z,4.03
2018-09-20T09:00:21.183Z,3.85
2018-09-20T09:03:00.769Z,3.77
2018-09-20T09:05:30.047Z,3.95
2018-09-20T09:08:01.850Z,4.28
2018-09-20T09:10:33.705Z,4.45
2018-09-20T09:13:10.422Z,4.33
2018-09-20T09:15:39.269Z,3.92
2018-09-20T09:18:09.966Z,4.72
2018-09-20T09:20:43.653Z,4.08
2018-09-20T09:23:12.553Z,4.55
2018-09-20T09:25:44.154Z,3.47
2018-09-20T09:30:53.617Z,4.55
2018-09-20T09:33:39.037Z,4.25
2018-09-20T09:36:07.823Z,3.75
2018-09-20T09:38:38.206Z,4.30
2018-09-20T09:41:10.870Z,4.33
2018-09-20T09:43:48.980Z,4.25
2018-09-20T09:46:24.046Z,3.62
2018-09-20T09:48:55.062Z,4.35
2018-09-20T09:51:25.627Z,3.87
2018-09-20T09:54:05.435Z,4.20
2018-09-20T09:56:35.215Z,4.60
2018-09-20T09:59:03.812Z,4.15
2018-09-20T10:01:32.282Z,5.00
2018-09-20T10:04:02.956Z,4.28
2018-09-20T10:06:31.414Z,4.83
2018-09-20T10:09:00.760Z,4.65
2018-09-20T10:11:35.108Z,4.40
2018-09-20T10:14:06.691Z,4.17
2018-09-20T10:19:18.310Z,4.13
2018-09-20T10:21:53.570Z,4.12
2018-09-20T10:24:24.144Z,4.40
2018-09-20T10:26:53.178Z,4.50
2018-09-20T10:29:21.805Z,4.10
2018-09-20T10:31:50.250Z,4.20
2018-09-20T10:34:19.783Z,4.10
2018-09-20T10:36:48.384Z,4.00
2018-09-20T10:39:16.829Z,4.15
2018-09-20T10:41:46.144Z,3.62
2018-09-20T10:44:14.959Z,3.65
2018-09-20T10:46:43.641Z,3.72
2018-09-20T10:49:12.045Z,3.55
2018-09-20T10:51:43.978Z,3.80
2018-09-20T10:54:13.517Z,3.52
2018-09-20T10:56:42.203Z,3.37
2018-09-20T10:59:10.966Z,3.35
2018-09-20T11:01:39.789Z,3.47
2018-09-20T11:04:08.090Z,3.72
2018-09-20T11:09:22.116Z,3.37
2018-09-20T11:11:56.824Z,3.10
2018-09-20T11:14:25.483Z,3.02
2018-09-20T11:16:53.917Z,3.17
2018-09-20T11:19:24.246Z,3.05
2018-09-20T11:21:55.412Z,3.22
2018-09-20T11:27:13.515Z,2.80
2018-09-20T11:29:42.547Z,3.20
2018-09-20T11:34:51.180Z,2.70
2018-09-20T11:37:19.833Z,3.27
2018-09-20T11:39:48.913Z,2.95
2018-09-20T11:42:19.733Z,3.27
2018-09-20T11:44:48.065Z,3.40
2018-09-20T11:47:18.558Z,3.12
2018-09-20T11:49:46.913Z,3.02
2018-09-20T11:52:17.746Z,2.87
2018-09-20T11:54:49.217Z,2.60
2018-09-20T11:57:17.604Z,3.17
2018-09-20T11:59:46.396Z,3.17
2018-09-20T12:02:14.974Z,2.77
2018-09-20T12:04:44.667Z,2.87
2018-09-20T12:07:13.597Z,3.10
2018-09-20T12:09:42.028Z,2.85
2018-09-20T12:12:10.561Z,3.17
2018-09-20T12:14:40.337Z,3.50
2018-09-20T12:17:08.811Z,3.37
2018-09-20T12:19:38.311Z,3.30
2018-09-20T12:22:08.117Z,3.37
2018-09-20T12:24:40.653Z,2.83
2018-09-20T12:27:10.052Z,3.17
2018-09-20T12:29:38.582Z,3.25
2018-09-20T12:32:07.040Z,3.22
2018-09-20T12:34:35.472Z,3.12
2018-09-20T12:37:03.911Z,3.30
2018-09-20T12:39:32.292Z,3.67
2018-09-20T12:44:40.469Z,3.03
2018-09-20T12:47:08.930Z,3.02
2018-09-20T12:49:37.444Z,3.52
2018-09-20T12:52:06.950Z,3.30
2018-09-20T12:54:37.273Z,3.10
2018-09-20T12:57:06.844Z,3.52
2018-09-20T12:59:47.190Z,3.12
2018-09-20T13:02:16.667Z,3.90
2018-09-20T13:04:46.810Z,3.50
2018-09-20T13:07:16.993Z,3.50
2018-09-20T13:09:47.404Z,3.20
2018-09-20T13:12:15.878Z,3.27
2018-09-20T13:14:44.305Z,3.72
2018-09-20T13:17:14.283Z,3.35
2018-09-20T13:19:42.766Z,3.60
2018-09-20T13:22:11.859Z,3.80
2018-09-20T13:24:40.538Z,3.27
2018-09-20T13:27:10.177Z,3.47
2018-09-20T13:29:40.657Z,3.47
2018-09-20T13:32:12.884Z,3.83
2018-09-20T13:34:41.328Z,4.30
2018-09-20T13:37:09.938Z,4.33
2018-09-20T13:39:41.615Z,3.98
2018-09-20T13:42:15.081Z,4.05
2018-09-20T13:44:43.550Z,3.77
2018-09-20T13:47:11.984Z,3.67
2018-09-20T13:49:42.569Z,3.67
2018-09-20T13:52:14.123Z,3.67
2018-09-20T13:54:43.358Z,3.70
2018-09-20T13:57:11.697Z,4.05
2018-09-20T13:59:42.073Z,3.70
2018-09-20T14:02:11.903Z,4.00
2018-09-20T14:04:42.558Z,3.72
2018-09-20T14:07:11.010Z,3.60
2018-09-20T14:09:42.373Z,4.10
2018-09-20T14:12:10.948Z,3.77
2018-09-20T14:14:40.245Z,3.27
2018-09-20T14:17:09.301Z,3.42
2018-09-20T14:19:43.006Z,3.40
2018-09-20T14:22:13.216Z,3.42
2018-09-20T14:24:44.958Z,3.15
2018-09-20T14:27:13.737Z,3.20
2018-09-20T14:29:42.151Z,3.52
2018-09-20T14:32:10.964Z,3.60
2018-09-20T14:34:39.501Z,3.17
2018-09-20T14:37:08.048Z,3.70
2018-09-20T14:39:36.421Z,3.80
2018-09-20T14:42:05.051Z,3.10
2018-09-20T14:44:34.636Z,3.10
2018-09-20T14:47:03.030Z,3.67
2018-09-20T14:49:33.196Z,3.12
2018-09-20T14:52:03.447Z,3.52
2018-09-20T14:54:32.461Z,2.92
2018-09-20T14:57:01.747Z,3.17
2018-09-20T14:59:30.089Z,3.00
2018-09-20T15:01:59.236Z,2.60
2018-09-20T15:04:28.225Z,2.70
2018-09-20T15:07:02.306Z,3.17
2018-09-20T15:09:30.614Z,2.98
2018-09-20T15:12:01.545Z,3.45
2018-09-20T15:14:31.086Z,2.77
2018-09-20T15:17:03.320Z,3.37
2018-09-20T15:19:32.600Z,2.95
2018-09-20T15:22:01.289Z,3.70
2018-09-20T15:24:30.999Z,2.77
2018-09-20T15:26:59.293Z,3.55
2018-09-20T15:29:28.191Z,3.10
2018-09-20T15:31:56.682Z,3.22
2018-09-20T15:34:25.535Z,3.42
2018-09-20T15:36:54.758Z,3.40
2018-09-20T15:39:23.715Z,3.37
2018-09-20T15:41:55.024Z,3.30
2018-09-20T15:44:27.679Z,3.42
2018-09-20T15:46:56.013Z,3.02
2018-09-20T15:52:26.587Z,3.20
2018-09-20T15:54:55.122Z,3.00
2018-09-20T15:57:23.857Z,3.33
2018-09-20T15:59:52.591Z,2.83
2018-09-20T16:02:21.062Z,2.92
2018-09-20T16:04:52.157Z,3.22
2018-09-20T16:07:20.992Z,2.98
2018-09-20T16:09:52.074Z,2.70
2018-09-20T16:12:20.595Z,3.10
2018-09-20T16:14:49.303Z,3.00
2018-09-20T16:17:17.704Z,3.22
2018-09-20T16:19:47.911Z,3.27
2018-09-20T16:22:21.726Z,3.45
2018-09-20T16:24:51.783Z,2.75
2018-09-20T16:27:23.346Z,2.90
2018-09-20T16:34:11.957Z,2.80
2018-09-20T16:37:51.796Z,2.85
2018-09-20T16:40:22.228Z,2.65
2018-09-20T16:42:51.124Z,3.35
2018-09-20T16:45:22.980Z,3.10
2018-09-20T16:47:53.865Z,2.95
2018-09-20T16:50:22.542Z,3.20
2018-09-20T16:52:51.318Z,3.25
2018-09-20T16:55:20.719Z,3.52
2018-09-20T16:57:49.262Z,3.67
2018-09-20T17:00:17.753Z,3.90
2018-09-20T17:02:46.879Z,3.10
2018-09-20T17:05:15.370Z,3.00
2018-09-20T17:07:44.222Z,2.62
2018-09-20T17:10:13.197Z,3.27
2018-09-20T17:15:22.619Z,2.97
2018-09-20T17:17:55.804Z,4.15
2018-09-20T17:20:24.507Z,3.85
2018-09-20T17:22:53.300Z,4.30
2018-09-20T17:25:21.994Z,3.98
2018-09-20T17:27:52.002Z,3.37
2018-09-20T17:30:22.632Z,4.58
2018-09-20T17:32:51.554Z,4.05
2018-09-20T17:35:20.875Z,4.53
2018-09-20T17:37:50.784Z,4.67
2018-09-20T17:40:21.989Z,5.40
2018-09-20T17:42:52.879Z,4.83
2018-09-20T17:45:21.593Z,4.58
2018-09-20T17:47:50.173Z,4.30
2018-09-20T17:50:19.529Z,4.33
2018-09-20T17:52:53.234Z,3.98
2018-09-20T17:55:27.938Z,4.70
2018-09-20T17:57:56.792Z,3.98
2018-09-20T18:00:25.547Z,4.00
2018-09-20T18:02:54.951Z,3.52
2018-09-20T18:05:24.415Z,4.60
2018-09-20T18:07:53.565Z,3.90
2018-09-20T18:10:22.323Z,4.20
2018-09-20T18:12:50.830Z,3.72
2018-09-20T18:15:20.277Z,3.62
2018-09-20T18:17:54.559Z,4.05
2018-09-20T18:20:24.558Z,3.40
2018-09-20T18:22:58.085Z,3.92
2018-09-20T18:25:26.802Z,4.67
2018-09-20T18:27:55.469Z,3.45
2018-09-20T18:33:12.120Z,3.87
2018-09-20T18:35:40.527Z,3.75
2018-09-20T18:41:02.702Z,3.73
2018-09-20T18:43:31.823Z,3.52
2018-09-20T18:46:01.722Z,3.67
2018-09-20T18:48:31.357Z,3.55
2018-09-20T18:51:07.096Z,3.70
2018-09-20T18:53:50.320Z,3.37
2018-09-20T18:56:20.966Z,3.95
2018-09-20T18:58:50.600Z,3.30
2018-09-20T19:01:22.030Z,3.62
2018-09-20T19:03:53.114Z,3.37
2018-09-20T19:06:26.592Z,3.77
2018-09-20T19:08:56.168Z,3.40
2018-09-20T19:11:27.040Z,3.58
2018-09-20T19:13:56.139Z,3.25
2018-09-20T19:16:24.990Z,3.47
2018-09-20T19:18:55.175Z,3.22
2018-09-20T19:21:23.615Z,3.87
2018-09-20T19:23:52.240Z,3.10
2018-09-20T19:26:21.161Z,3.52
2018-09-20T19:28:49.917Z,3.70
2018-09-20T19:34:13.593Z,3.17
2018-09-20T19:36:42.305Z,3.35
2018-09-20T19:39:12.004Z,3.12
2018-09-20T19:41:40.456Z,3.10
2018-09-20T19:44:08.993Z,3.52
2018-09-20T19:46:38.621Z,3.55
2018-09-20T19:49:08.033Z,3.25
2018-09-20T19:51:38.513Z,3.35
2018-09-20T19:54:06.950Z,3.15
2018-09-20T19:59:14.318Z,2.95
2018-09-20T20:04:18.299Z,3.10
2018-09-20T20:06:46.918Z,2.90
2018-09-20T20:22:22.537Z,2.70
2018-09-20T20:25:08.835Z,3.02
2018-09-20T20:27:37.392Z,3.47
2018-09-20T20:30:10.121Z,2.95
2018-09-20T20:35:14.717Z,3.27
2018-09-20T20:37:43.090Z,2.95
2018-09-20T20:42:56.038Z,2.67
2018-09-20T20:45:25.658Z,3.67
2018-09-20T20:47:54.232Z,3.40
2018-09-20T20:50:22.964Z,3.02
2018-09-20T20:52:51.681Z,2.92
2018-09-20T20:55:20.751Z,3.30
2018-09-20T21:00:40.751Z,2.87
2018-09-20T21:05:47.868Z,3.00
2018-09-20T21:08:21.787Z,3.65
2018-09-20T21:10:50.666Z,3.15
2018-09-20T21:13:18.997Z,3.00
2018-09-20T21:15:48.751Z,3.02
2018-09-20T21:18:17.089Z,3.17
2018-09-20T21:20:45.905Z,2.72
2018-09-20T21:26:05.875Z,3.70
2018-09-20T21:28:40.422Z,3.25
2018-09-20T21:31:11.097Z,2.87
2018-09-20T21:33:40.956Z,2.80
2018-09-20T21:36:10.558Z,3.00
2018-09-20T21:41:16.004Z,3.40
2018-09-20T21:43:46.394Z,2.80
2018-09-20T21:46:18.195Z,3.52
2018-09-20T21:48:53.088Z,3.10
2018-09-20T21:51:28.302Z,3.12
2018-09-20T21:53:57.058Z,3.35
2018-09-20T21:59:05.107Z,2.93
2018-09-20T22:04:25.983Z,2.70
2018-09-20T22:09:38.141Z,3.03
2018-09-20T22:12:14.415Z,3.05
2018-09-20T22:14:44.584Z,2.92
2018-09-20T22:17:13.138Z,3.00
2018-09-20T22:19:42.499Z,3.05
2018-09-20T22:22:15.230Z,3.02
2018-09-20T22:24:52.629Z,2.87
2018-09-20T22:27:21.488Z,2.70
2018-09-20T22:30:03.517Z,2.83
2018-09-20T22:32:39.603Z,3.02
2018-09-20T22:35:11.300Z,2.75
2018-09-20T22:37:40.371Z,2.65
2018-09-20T22:40:09.145Z,3.00
2018-09-20T22:42:41.349Z,2.67
2018-09-20T22:45:29.010Z,3.15
2018-09-20T22:54:41.159Z,2.63
2018-09-20T22:57:19.062Z,2.95
2018-09-20T22:59:52.704Z,2.50
2018-09-20T23:02:30.660Z,3.27
2018-09-20T23:07:39.840Z,2.37
2018-09-20T23:10:09.650Z,3.00
2018-09-20T23:12:42.635Z,2.70
2018-09-20T23:15:13.802Z,2.47
2018-09-20T23:17:46.569Z,2.45
2018-09-20T23:20:19.994Z,2.65
2018-09-20T23:22:48.732Z,2.67
2018-09-20T23:28:00.577Z,2.87
2018-09-20T23:30:35.582Z,2.70
2018-09-20T23:33:04.081Z,3.10
2018-09-20T23:35:34.051Z,2.60
2018-09-20T23:38:07.946Z,2.27
2018-09-20T23:40:36.966Z,2.70
2018-09-20T23:43:07.584Z,3.20
2018-09-20T23:45:37.636Z,2.40
2018-09-20T23:50:58.869Z,2.57
2018-09-20T23:53:27.660Z,2.22
2018-09-20T23:56:00.019Z,3.00
2018-09-20T23:58:32.435Z,2.40
